createdAt,value
2022-08-17T00:00:01.916Z,0.124
2022-08-17T00:05:01.999Z,0.153
2022-08-17T00:10:02.058Z,0.128
2022-08-17T00:15:02.036Z,0.866
2022-08-17T00:20:02.042Z,1.2690000000000001
2022-08-17T00:25:02.425Z,1.236
2022-08-17T00:30:02.267Z,0.739
2022-08-17T00:35:02.035Z,0.10200000000000001
2022-08-17T00:40:02.033Z,0
2022-08-17T00:45:02.351Z,0
2022-08-17T00:50:07.947Z,0
2022-08-17T00:55:02.184Z,0
2022-08-17T01:00:03.425Z,0.121
2022-08-17T01:05:01.996Z,0.389
2022-08-17T01:10:01.951Z,0.133
2022-08-17T01:15:01.957Z,0.138
2022-08-17T01:20:02.133Z,0.134
2022-08-17T01:25:02.010Z,0.176
2022-08-17T01:30:01.990Z,0.17500000000000002
2022-08-17T01:35:02.167Z,0.163
2022-08-17T01:40:02.002Z,0.138
2022-08-17T01:45:01.986Z,0.117
2022-08-17T01:50:07.987Z,0.121
2022-08-17T01:55:02.133Z,0.12
2022-08-17T02:00:02.011Z,0.121
2022-08-17T02:05:02.261Z,0.13
2022-08-17T02:10:02.343Z,0.022
2022-08-17T02:15:02.464Z,0.17200000000000001
2022-08-17T02:20:04.216Z,0.167
2022-08-17T02:25:02.631Z,0.131
2022-08-17T02:30:02.019Z,0.12
2022-08-17T02:35:02.148Z,0.137
2022-08-17T02:40:02.179Z,0.136
2022-08-17T02:45:03.209Z,0.145
2022-08-17T02:50:02.057Z,0.186
2022-08-17T02:55:02.274Z,0.186
2022-08-17T03:00:02.274Z,0.167
2022-08-17T03:05:02.365Z,0.124
2022-08-17T03:10:02.096Z,0.11800000000000001
2022-08-17T03:15:03.099Z,0.122
2022-08-17T03:20:02.050Z,0.124
2022-08-17T03:25:02.066Z,0.125
2022-08-17T03:30:02.119Z,0.168
2022-08-17T03:35:02.068Z,0.17400000000000002
2022-08-17T03:40:02.170Z,0.17500000000000002
2022-08-17T03:45:02.115Z,0.145
2022-08-17T03:50:08.004Z,0.124
2022-08-17T03:55:02.113Z,12.715
2022-08-17T04:00:02.208Z,37.731
2022-08-17T04:05:02.226Z,39.805
2022-08-17T04:10:02.949Z,63.013
2022-08-17T04:15:02.105Z,82.836
2022-08-17T04:20:02.138Z,88.993
2022-08-17T04:25:02.304Z,84.982
2022-08-17T04:30:02.385Z,84.181
2022-08-17T04:35:02.126Z,88.686
2022-08-17T04:40:04.251Z,68.413
2022-08-17T04:45:02.127Z,56.891
2022-08-17T04:50:07.622Z,50.513
2022-08-17T04:55:02.175Z,74.299
2022-08-17T05:00:02.178Z,144.857
2022-08-17T05:05:02.164Z,208.303
2022-08-17T05:10:02.184Z,265.933
2022-08-17T05:15:02.345Z,320.431
2022-08-17T05:20:11.995Z,345.229
2022-08-17T05:25:02.671Z,367.428
2022-08-17T05:30:02.402Z,390.046
2022-08-17T05:35:02.409Z,421.192
2022-08-17T05:40:02.297Z,463.002
2022-08-17T05:45:02.455Z,510.761
2022-08-17T05:50:02.417Z,565.455
2022-08-17T05:55:02.385Z,628.878
2022-08-17T06:00:02.202Z,687.018
2022-08-17T06:05:02.223Z,797.2330000000001
2022-08-17T06:10:02.408Z,893.754
2022-08-17T06:15:02.385Z,840.1080000000001
2022-08-17T06:20:08.527Z,1066.063
2022-08-17T06:25:02.430Z,1290.277
2022-08-17T06:30:02.413Z,1443.699
2022-08-17T06:35:02.261Z,1599.983
2022-08-17T06:40:02.382Z,1780.769
2022-08-17T06:45:02.664Z,1993.7830000000001
2022-08-17T06:50:03.382Z,2164.266
2022-08-17T06:55:02.357Z,2322.752
2022-08-17T07:00:02.355Z,2471.666
2022-08-17T07:05:02.256Z,2626.196
2022-08-17T07:10:02.305Z,2788.062
2022-08-17T07:15:02.264Z,2947.65
2022-08-17T07:20:02.402Z,3152.8050000000003
2022-08-17T07:25:02.276Z,3303.8340000000003
2022-08-17T07:30:04.647Z,3464.14
2022-08-17T07:35:02.368Z,3555.136
2022-08-17T07:40:14.983Z,3415.052
2022-08-17T07:45:02.304Z,3686.077
2022-08-17T07:50:02.265Z,3691.732
2022-08-17T07:55:02.577Z,3827.4390000000003
2022-08-17T08:00:02.349Z,3951.886
2022-08-17T08:05:02.495Z,3297.4230000000002
2022-08-17T08:10:02.391Z,4331.868
2022-08-17T08:15:02.511Z,4689.077
2022-08-17T08:20:37.823Z,4767.218
2022-08-17T08:25:02.353Z,4504.412
2022-08-17T08:30:02.468Z,4883.776
2022-08-17T08:35:03.354Z,4881.055
2022-08-17T08:40:02.396Z,4852.017
2022-08-17T08:45:04.345Z,5299.078
2022-08-17T08:50:04.273Z,5042.569
2022-08-17T08:55:02.368Z,5009.0740000000005
2022-08-17T09:00:02.382Z,5321.551
2022-08-17T09:05:15.142Z,5415.783
2022-08-17T09:10:02.362Z,5113.795
2022-08-17T09:15:02.403Z,5114.014
2022-08-17T09:20:04.174Z,5542.951
2022-08-17T09:25:02.562Z,5868.36
2022-08-17T09:30:02.380Z,5686.572
2022-08-17T09:35:02.497Z,5815.967000000001
2022-08-17T09:40:02.617Z,5950.91
2022-08-17T09:45:02.539Z,5901.91
2022-08-17T09:50:03.762Z,5939.381
2022-08-17T09:55:02.563Z,6124.395
2022-08-17T10:00:02.459Z,6382.209
2022-08-17T10:05:02.464Z,6335.185
2022-08-17T10:10:02.534Z,6429.743
2022-08-17T10:15:07.869Z,6564.4980000000005
2022-08-17T10:20:02.470Z,6596.8150000000005
2022-08-17T10:25:21.922Z,6445.872
2022-08-17T10:30:02.597Z,6751.3240000000005
2022-08-17T10:35:02.436Z,6700.465
2022-08-17T10:40:02.612Z,6819.213
2022-08-17T10:45:02.674Z,6773.781
2022-08-17T10:50:10.220Z,6686.676
2022-08-17T10:55:02.494Z,6686.084
2022-08-17T11:00:02.571Z,6503.341
2022-08-17T11:05:02.780Z,6140.817
2022-08-17T11:10:07.470Z,6492.4220000000005
2022-08-17T11:15:02.491Z,6429.938
2022-08-17T11:20:02.677Z,6904.962
2022-08-17T11:25:02.474Z,6825.476000000001
2022-08-17T11:30:02.970Z,7075.249
2022-08-17T11:35:02.673Z,6872.136
2022-08-17T11:40:02.530Z,7173.344
2022-08-17T11:45:02.548Z,7042.133
2022-08-17T11:50:05.179Z,6806.81
2022-08-17T11:55:17.902Z,6455.211
2022-08-17T12:00:02.527Z,6182.301
2022-08-17T12:22:42.447Z,6472.164
2022-08-17T12:25:02.553Z,6507.618
2022-08-17T12:30:02.708Z,6559.363
2022-08-17T12:35:02.683Z,5333.441
2022-08-17T12:40:02.616Z,3501.716
2022-08-17T12:45:02.583Z,3550.443
2022-08-17T12:50:02.784Z,4599.994
2022-08-17T12:55:02.678Z,4782.387
2022-08-17T13:00:02.587Z,4330.229
2022-08-17T13:05:02.715Z,3971.208
2022-08-17T13:10:02.593Z,3625.146
2022-08-17T13:15:02.588Z,4470.694
2022-08-17T13:20:02.786Z,5249.256
2022-08-17T13:25:02.553Z,6092.792
2022-08-17T13:30:02.610Z,5995.805
2022-08-17T13:35:13.314Z,5648.9130000000005
2022-08-17T13:40:02.746Z,3973.355
2022-08-17T13:45:02.620Z,3857.44
2022-08-17T13:50:02.717Z,4119.024
2022-08-17T13:55:02.789Z,3770.948
2022-08-17T14:00:01.476Z,3399.812
2022-08-17T14:05:01.595Z,4346.385
2022-08-17T14:10:01.414Z,2991.997
2022-08-17T14:15:01.449Z,2185.922
2022-08-17T14:20:01.627Z,2148.429
2022-08-17T14:25:01.478Z,2419.617
2022-08-17T14:30:01.586Z,2373.666
2022-08-17T14:35:01.628Z,2721.862
2022-08-17T14:40:01.511Z,3237.387
2022-08-17T14:45:01.503Z,3138.916
2022-08-17T14:50:01.956Z,2441.507
2022-08-17T14:55:01.586Z,2384.786
2022-08-17T15:00:06.470Z,3403.327
2022-08-17T15:05:01.551Z,4340.808
2022-08-17T15:10:01.969Z,3475.404
2022-08-17T15:15:01.498Z,3164.614
2022-08-17T15:20:01.484Z,2854.53
2022-08-17T15:25:01.756Z,2922.386
2022-08-17T15:30:01.478Z,2026.597
2022-08-17T15:35:01.513Z,2045.953
2022-08-17T15:40:01.746Z,1949.241
2022-08-17T15:45:01.534Z,1610.945
2022-08-17T15:50:01.594Z,2033.683
2022-08-17T15:55:01.661Z,938.592
2022-08-17T16:00:01.543Z,819.856
2022-08-17T16:05:01.715Z,856.284
2022-08-17T16:10:01.567Z,1043.271
2022-08-17T16:15:01.529Z,1503.953
2022-08-17T16:20:01.588Z,1221.362
2022-08-17T16:25:01.610Z,2089.728
2022-08-17T16:30:01.744Z,1503.963
2022-08-17T16:35:01.579Z,1218.443
2022-08-17T16:40:01.662Z,1597.032
2022-08-17T16:45:01.668Z,1021.261
2022-08-17T16:50:01.590Z,1708.978
2022-08-17T16:55:01.583Z,1839.478
2022-08-17T17:00:01.600Z,1656.911
2022-08-17T17:05:01.758Z,1451.29
2022-08-17T17:10:01.614Z,1268.0240000000001
2022-08-17T17:15:01.614Z,1118.218
2022-08-17T17:20:01.747Z,753.3050000000001
2022-08-17T17:25:01.628Z,754.28
2022-08-17T17:30:01.626Z,491.892
2022-08-17T17:35:01.636Z,187.619
2022-08-17T17:40:01.907Z,163.55100000000002
2022-08-17T17:45:01.631Z,173.314
2022-08-17T17:50:01.701Z,154.481
2022-08-17T17:55:03.150Z,106.86
2022-08-17T18:00:01.724Z,77.029
2022-08-17T18:05:06.704Z,46.954
2022-08-17T18:10:02.012Z,25.661
2022-08-17T18:15:01.669Z,33.667
2022-08-17T18:20:01.623Z,16.839
2022-08-17T18:25:01.687Z,0.135
2022-08-17T18:30:05.820Z,0.135
2022-08-17T18:35:01.734Z,0.11900000000000001
2022-08-17T18:40:01.765Z,0.089
2022-08-17T18:45:02.020Z,0.085
2022-08-17T18:50:01.974Z,0.083
2022-08-17T18:55:01.759Z,0.079
2022-08-17T19:00:01.904Z,0.106
2022-08-17T19:05:01.811Z,0.136
2022-08-17T19:10:01.794Z,0.133
2022-08-17T19:15:01.688Z,0.123
2022-08-17T19:20:02.131Z,0.089
2022-08-17T19:25:02.865Z,0.089
2022-08-17T19:30:07.115Z,0.08
2022-08-17T19:35:01.789Z,0.08600000000000001
2022-08-17T19:40:01.947Z,0.096
2022-08-17T19:45:01.811Z,0.115
2022-08-17T19:50:01.755Z,0.049
2022-08-17T19:55:01.932Z,0
2022-08-17T20:00:01.753Z,0.045
2022-08-17T20:05:01.786Z,0.065
2022-08-17T20:10:01.754Z,0.078
2022-08-17T20:15:02.004Z,0.081
2022-08-17T20:20:01.771Z,0.096
2022-08-17T20:25:01.775Z,0.137
2022-08-17T20:30:01.922Z,0.13
2022-08-17T20:35:01.787Z,0.125
2022-08-17T20:40:01.782Z,0.078
2022-08-17T20:45:01.795Z,0
2022-08-17T20:50:01.950Z,0
2022-08-17T20:55:02.069Z,0.269
2022-08-17T21:00:01.873Z,0.177
2022-08-17T21:05:01.840Z,0.137
2022-08-17T21:10:01.812Z,0.14100000000000001
2022-08-17T21:15:01.961Z,0.14400000000000002
2022-08-17T21:20:11.748Z,0.121
2022-08-17T21:25:02.010Z,0.099
2022-08-17T21:30:01.847Z,0.018000000000000002
2022-08-17T21:35:01.790Z,0.029
2022-08-17T21:40:02.216Z,0.101
2022-08-17T21:45:02.034Z,0.124
2022-08-17T21:50:01.895Z,0.155
2022-08-17T21:55:01.836Z,0.151
2022-08-17T22:00:01.947Z,0.138
2022-08-17T22:05:01.865Z,0.105
2022-08-17T22:10:01.887Z,0.1
2022-08-17T22:15:01.942Z,0.091
2022-08-17T22:20:02.085Z,0.09
2022-08-17T22:25:01.888Z,0.109
2022-08-17T22:30:01.856Z,0.165
2022-08-17T22:35:01.948Z,0.163
2022-08-17T22:40:02.571Z,0.16
2022-08-17T22:45:01.898Z,0.11
2022-08-17T22:50:01.909Z,0.107
2022-08-17T22:55:02.057Z,0.19
2022-08-17T23:00:02.028Z,0.245
2022-08-17T23:05:01.907Z,0.242
2022-08-17T23:10:01.867Z,0.194
2022-08-17T23:15:02.042Z,0.171
2022-08-17T23:20:01.920Z,0.482
2022-08-17T23:25:02.058Z,1.286
2022-08-17T23:30:01.938Z,1.309
2022-08-17T23:35:01.919Z,1.302
2022-08-17T23:40:01.983Z,1.266
2022-08-17T23:45:01.866Z,1.2510000000000001
2022-08-17T23:50:02.146Z,1.169
2022-08-17T23:55:01.971Z,1.1300000000000001
